Terminal Aerodrome Forecast
Issued by NWS

Home | Current Version | Previous Version | Text Only | Print | Product List | Glossary On
Versions: 1 2 3 4 5 6 7 8 9 10 11 12 13 14 15 16 17 18 19
416
FTAK31 PAJN 301124
TAFAJN
TAF
PAJN 301124Z 3012/3112 08007KT P6SM -SHRA SCT025 OVC050
      TEMPO 3017/3021 6SM -SHRA BKN025 OVC050
     FM310600 11008KT P6SM SCT050 BKN080=

USA.gov is the U.S. government's official web portal to all federal, state and local government web resources and services.